Time;durP1;ratioP1;P1;durP2;ratioP2;P2;SDS_P1;SDS_P2;PMS_P1;PMS_P2;Temp;Humidity;BMP_temperature;BMP_pressure;BME280_temperature;BME280_humidity;BME280_pressure;Samples;Min_cycle;Max_cycle;Signal;HPM_P1;HPM_P2
2023/10/22 00:01:04;;;;;;;;;;;;;;;-140.72;100.00;61528.34;5073656;28;19928;-70
2023/10/22 00:03:29;;;;;;;;;;;;;;;-140.72;100.00;61465.31;5071761;28;19998;-70
2023/10/22 00:05:55;;;;;;;;;;;;;;;-140.72;100.00;61447.00;5075096;28;19954;-70
2023/10/22 00:08:20;;;;;;;;;;;;;;;-140.72;100.00;61432.75;5076074;28;20859;-70
2023/10/22 00:10:45;;;;;;;;;;;;;;;-140.72;100.00;61381.91;5070978;28;19989;-70
2023/10/22 00:13:10;;;;;;;;;;;;;;;-140.72;100.00;61333.09;5064457;28;19924;-70
2023/10/22 00:15:35;;;;;;;;;;;;;;;-140.72;100.00;61286.34;5075845;28;19958;-70
2023/10/22 00:18:01;;;;;;;;;;;;;;;-140.72;100.00;61231.44;5072572;28;20011;-70
2023/10/22 00:20:27;;;;;;;;;;;;;;;-140.72;100.00;61211.09;5069696;28;19916;-70
2023/10/22 00:22:52;;;;;;;;;;;;;;;-140.72;100.00;61154.16;5073807;28;19923;-70
2023/10/22 00:25:17;;;;;;;;;;;;;;;-140.72;100.00;61146.00;5064994;28;19929;-70
2023/10/22 00:27:43;;;;;;;;;;;;;;;-140.72;100.00;61111.44;5078406;28;20275;-70
2023/10/22 00:30:08;;;;;;;;;;;;;;;-140.72;100.00;61060.59;5075379;28;19920;-70
2023/10/22 00:32:33;;;;;;;;;;;;;;;-140.72;100.00;61068.75;5066613;28;20235;-70
2023/10/22 00:34:59;;;;;;;;;;;;;;;-140.72;100.00;61052.47;5074892;28;19927;-70
2023/10/22 00:37:24;;;;;;;;;;;;;;;-140.72;100.00;60977.22;5067707;28;20331;-70
2023/10/22 00:39:49;;;;;;;;;;;;;;;-140.72;100.00;61034.16;5067951;28;20007;-70
2023/10/22 00:42:14;;;;;;;;;;;;;;;-140.72;100.00;60995.53;5067951;28;20003;-70
2023/10/22 00:44:40;;;;;;;;;;;;;;;-140.72;100.00;60977.22;5070127;28;19968;-70
2023/10/22 00:47:05;;;;;;;;;;;;;;;-140.72;100.00;60944.69;5069754;28;20375;-70
2023/10/22 00:49:31;;;;;;;;;;;;;;;-140.72;100.00;60946.72;5072311;28;19928;-70
2023/10/22 00:51:57;;;;;;;;;;;;;;;-140.72;100.00;60932.50;5065019;28;19921;-70
2023/10/22 00:54:24;;;;;;;;;;;;;;;-140.72;100.00;60885.72;5070667;28;19928;-70
2023/10/22 00:56:51;;;;;;;;;;;;;;;-140.72;100.00;60887.75;5071161;28;20007;-70
2023/10/22 00:59:16;;;;;;;;;;;;;;;-140.72;100.00;60906.06;5074791;28;19963;-70
2023/10/22 01:01:44;;;;;;;;;;;;;;;-140.72;100.00;60938.59;5071565;28;19978;-70
2023/10/22 01:04:09;;;;;;;;;;;;;;;-140.72;100.00;60926.38;5070492;28;19921;-70
2023/10/22 01:06:35;;;;;;;;;;;;;;;-140.72;100.00;60912.16;5071394;28;20077;-70
2023/10/22 01:09:01;;;;;;;;;;;;;;;-140.72;100.00;60871.50;5064255;28;19978;-70
2023/10/22 01:11:26;;;;;;;;;;;;;;;-140.72;100.00;60928.44;5066674;28;19924;-70
2023/10/22 01:13:51;;;;;;;;;;;;;;;-140.72;100.00;60938.59;5071938;28;19960;-70
2023/10/22 01:16:16;;;;;;;;;;;;;;;-140.72;100.00;60944.69;5071568;28;19927;-70
2023/10/22 01:18:41;;;;;;;;;;;;;;;-140.72;100.00;61005.69;5065128;28;19921;-69
2023/10/22 01:21:07;;;;;;;;;;;;;;;-140.72;100.00;61003.66;5066053;28;19924;-70
2023/10/22 01:23:38;;;;;;;;;;;;;;;-140.72;100.00;61013.84;5069500;28;20024;-70
2023/10/22 01:26:06;;;;;;;;;;;;;;;-140.72;100.00;61066.69;5072394;28;19916;-70
2023/10/22 01:28:32;;;;;;;;;;;;;;;-140.72;100.00;61103.31;5072393;28;19968;-70
2023/10/22 01:30:57;;;;;;;;;;;;;;;-140.72;100.00;61125.69;5074192;28;20366;-70
2023/10/22 01:33:22;;;;;;;;;;;;;;;-140.72;100.00;61139.91;5072074;28;20334;-70
2023/10/22 01:35:48;;;;;;;;;;;;;;;-140.72;100.00;61168.38;5071921;28;19927;-70
2023/10/22 01:38:13;;;;;;;;;;;;;;;-140.72;100.00;61178.56;5068318;28;19920;-70
2023/10/22 01:40:38;;;;;;;;;;;;;;;-140.72;100.00;61209.06;5068924;28;19952;-70
2023/10/22 01:43:04;;;;;;;;;;;;;;;-140.72;100.00;61259.91;5064959;28;19928;-70
2023/10/22 01:45:29;;;;;;;;;;;;;;;-140.72;100.00;61306.66;5069897;28;19971;-70
2023/10/22 01:47:54;;;;;;;;;;;;;;;-140.72;100.00;61304.63;5065142;28;20019;-70
2023/10/22 01:50:19;;;;;;;;;;;;;;;-140.72;100.00;61347.34;5062702;28;19920;-70
2023/10/22 01:52:44;;;;;;;;;;;;;;;-140.72;100.00;61345.31;5066879;28;20066;-71
2023/10/22 01:55:10;;;;;;;;;;;;;;;-140.72;100.00;61410.38;5066554;28;20017;-70
2023/10/22 01:57:35;;;;;;;;;;;;;;;-140.72;100.00;61367.69;5067097;28;19924;-70
2023/10/22 02:00:00;;;;;;;;;;;;;;;-140.72;100.00;61489.72;5068689;28;19931;-70
2023/10/22 02:02:26;;;;;;;;;;;;;;;-140.72;100.00;61475.47;5074449;28;19929;-70
2023/10/22 02:04:51;;;;;;;;;;;;;;;-140.72;100.00;61493.78;5068495;28;20003;-70
2023/10/22 02:07:17;;;;;;;;;;;;;;;-140.72;100.00;61532.41;5066660;28;19963;-71
2023/10/22 02:09:42;;;;;;;;;;;;;;;-140.72;100.00;61499.88;5068446;28;20011;-70
2023/10/22 02:12:09;;;;;;;;;;;;;;;-140.72;100.00;61514.13;5073357;28;20335;-70
2023/10/22 02:14:34;;;;;;;;;;;;;;;-140.72;100.00;61538.53;5071538;28;19978;-70
2023/10/22 02:16:59;;;;;;;;;;;;;;;-140.72;100.00;61564.97;5066742;28;20286;-70
2023/10/22 02:19:24;;;;;;;;;;;;;;;-140.72;100.00;61597.50;5066000;28;20227;-70
2023/10/22 02:22:00;;;;;;;;;;;;;;;-140.72;100.00;61556.81;5071872;28;20297;-70
2023/10/22 02:24:28;;;;;;;;;;;;;;;-140.72;100.00;61546.66;5070971;28;19924;-69
2023/10/22 02:26:53;;;;;;;;;;;;;;;-140.72;100.00;61564.97;5063022;28;19923;-70
2023/10/22 02:29:18;;;;;;;;;;;;;;;-140.72;100.00;61583.25;5069740;28;19999;-70
2023/10/22 02:31:44;;;;;;;;;;;;;;;-140.72;100.00;61577.16;5070854;28;20022;-70
2023/10/22 02:34:11;;;;;;;;;;;;;;;-140.72;100.00;61583.25;5069512;28;20402;-70
2023/10/22 02:36:36;;;;;;;;;;;;;;;-140.72;100.00;61571.06;5068425;28;19943;-70
2023/10/22 02:39:04;;;;;;;;;;;;;;;-140.72;100.00;61556.81;5070397;28;20358;-70
2023/10/22 02:41:29;;;;;;;;;;;;;;;-140.72;100.00;61548.69;5071214;28;19924;-70
2023/10/22 02:43:57;;;;;;;;;;;;;;;-140.72;100.00;61567.00;5069434;28;19972;-70
2023/10/22 02:46:22;;;;;;;;;;;;;;;-140.72;100.00;61556.81;5067526;28;20066;-70
2023/10/22 02:48:47;;;;;;;;;;;;;;;-140.72;100.00;61508.00;5067929;28;20612;-70
2023/10/22 02:51:13;;;;;;;;;;;;;;;-140.72;100.00;61499.88;5064294;28;20027;-70
2023/10/22 02:53:38;;;;;;;;;;;;;;;-140.72;100.00;61505.97;5069794;28;20335;-70
2023/10/22 02:56:04;;;;;;;;;;;;;;;-140.72;100.00;61522.25;5068751;28;19916;-70
2023/10/22 02:58:29;;;;;;;;;;;;;;;-140.72;100.00;61487.69;5070063;28;19943;-71
2023/10/22 03:01:03;;;;;;;;;;;;;;;-140.72;100.00;61463.28;5068223;28;19924;-70
2023/10/22 03:03:28;;;;;;;;;;;;;;;-140.72;100.00;61503.94;5069162;28;19996;-70
2023/10/22 03:05:57;;;;;;;;;;;;;;;-140.72;100.00;61471.41;5067641;28;19924;-70
2023/10/22 03:08:22;;;;;;;;;;;;;;;-140.72;100.00;61455.13;5076186;28;19928;-70
2023/10/22 03:10:47;;;;;;;;;;;;;;;-140.72;100.00;61467.34;5069929;28;20466;-70
2023/10/22 03:13:13;;;;;;;;;;;;;;;-140.72;100.00;61430.72;5071036;28;20354;-70
2023/10/22 03:15:40;;;;;;;;;;;;;;;-140.72;100.00;61420.56;5067549;28;19946;-70
2023/10/22 03:18:07;;;;;;;;;;;;;;;-140.72;100.00;61430.72;5070837;28;20007;-70
2023/10/22 03:20:35;;;;;;;;;;;;;;;-140.72;100.00;61410.38;5069368;28;19927;-70
2023/10/22 03:23:03;;;;;;;;;;;;;;;-140.72;100.00;61367.69;5072065;28;19920;-70
2023/10/22 03:25:28;;;;;;;;;;;;;;;-140.72;100.00;61369.72;5074832;28;19927;-70
2023/10/22 03:27:53;;;;;;;;;;;;;;;-140.72;100.00;61353.44;5070681;28;19920;-70
2023/10/22 03:30:19;;;;;;;;;;;;;;;-140.72;100.00;61329.03;5070203;28;20279;-70
2023/10/22 03:32:44;;;;;;;;;;;;;;;-140.72;100.00;61324.97;5068505;28;20384;-71
2023/10/22 03:35:10;;;;;;;;;;;;;;;-140.72;100.00;61308.72;5077023;28;19921;-70
2023/10/22 03:37:35;;;;;;;;;;;;;;;-140.72;100.00;61268.03;5066388;28;19971;-70
2023/10/22 03:40:01;;;;;;;;;;;;;;;-140.72;100.00;61257.88;5073948;28;19920;-70
2023/10/22 03:42:27;;;;;;;;;;;;;;;-140.72;100.00;61219.22;5072458;28;20350;-70
2023/10/22 03:44:52;;;;;;;;;;;;;;;-140.72;100.00;61237.53;5072964;28;19968;-71
2023/10/22 03:47:17;;;;;;;;;;;;;;;-140.72;100.00;61133.81;5070673;28;20275;-70
2023/10/22 03:49:42;;;;;;;;;;;;;;;-140.72;100.00;61129.75;5086061;28;19928;-70
2023/10/22 03:52:13;;;;;;;;;;;;;;;-140.72;100.00;61091.09;5071636;28;19928;-70
2023/10/22 03:54:39;;;;;;;;;;;;;;;-140.72;100.00;61056.53;5074955;28;19928;-70
2023/10/22 03:57:04;;;;;;;;;;;;;;;-140.72;100.00;61024.00;5070287;28;20182;-71
2023/10/22 03:59:36;;;;;;;;;;;;;;;-140.72;100.00;61007.72;5070472;28;19996;-71
2023/10/22 04:02:01;;;;;;;;;;;;;;;-140.72;100.00;60926.38;5074240;28;19921;-72
2023/10/22 04:04:26;;;;;;;;;;;;;;;-140.72;100.00;60897.91;5068764;28;19987;-70
2023/10/22 04:06:52;;;;;;;;;;;;;;;-140.72;100.00;60891.81;5071885;28;19927;-70
2023/10/22 04:09:17;;;;;;;;;;;;;;;-140.72;100.00;60857.25;5072447;28;19920;-70
2023/10/22 04:11:42;;;;;;;;;;;;;;;-140.72;100.00;60812.53;5070091;28;19920;-70
2023/10/22 04:14:07;;;;;;;;;;;;;;;-140.72;100.00;60796.25;5063359;28;19955;-70
2023/10/22 04:16:33;;;;;;;;;;;;;;;-140.72;100.00;60786.09;5069125;28;20118;-70
2023/10/22 04:18:58;;;;;;;;;;;;;;;-140.72;100.00;60751.50;5070160;28;19969;-70
2023/10/22 04:21:23;;;;;;;;;;;;;;;-140.72;100.00;60751.50;5070677;28;19960;-70
2023/10/22 04:23:50;;;;;;;;;;;;;;;-140.72;100.00;60692.53;5072061;28;19950;-70
2023/10/22 04:26:15;;;;;;;;;;;;;;;-140.72;100.00;60714.91;5069593;28;20018;-70
2023/10/22 04:28:42;;;;;;;;;;;;;;;-140.72;100.00;60657.97;5069419;28;20047;-70
2023/10/22 04:31:08;;;;;;;;;;;;;;;-140.72;100.00;60692.53;5074713;28;19928;-71
2023/10/22 04:33:33;;;;;;;;;;;;;;;-140.72;100.00;60678.31;5071078;28;19921;-70
2023/10/22 04:35:59;;;;;;;;;;;;;;;-140.72;100.00;60629.50;5075462;28;19926;-71
2023/10/22 04:38:24;;;;;;;;;;;;;;;-140.72;100.00;60596.97;5072193;28;20059;-70
2023/10/22 04:40:50;;;;;;;;;;;;;;;-140.72;100.00;60664.09;5070425;28;20330;-70
2023/10/22 04:43:15;;;;;;;;;;;;;;;-140.72;100.00;60662.03;5069829;28;20409;-71
2023/10/22 04:45:47;;;;;;;;;;;;;;;-140.72;100.00;60651.88;5071156;28;19927;-72
2023/10/22 04:48:12;;;;;;;;;;;;;;;-140.72;100.00;60649.84;5070420;28;19928;-72
2023/10/22 04:50:38;;;;;;;;;;;;;;;-140.72;100.00;60666.13;5071997;28;19920;-73
2023/10/22 04:53:03;;;;;;;;;;;;;;;-140.72;100.00;60686.44;5066509;28;19921;-70
2023/10/22 04:55:28;;;;;;;;;;;;;;;-140.72;100.00;60660.00;5074108;28;20327;-70
2023/10/22 04:57:55;;;;;;;;;;;;;;;-140.72;100.00;60700.69;5071575;28;19920;-70
2023/10/22 05:00:21;;;;;;;;;;;;;;;-140.72;100.00;60727.13;5073069;28;19952;-70
2023/10/22 05:02:46;;;;;;;;;;;;;;;-140.72;100.00;60700.69;5072838;28;20512;-70
2023/10/22 05:05:11;;;;;;;;;;;;;;;-140.72;100.00;60688.47;5067393;28;19927;-70
2023/10/22 05:07:37;;;;;;;;;;;;;;;-140.72;100.00;60684.41;5070539;28;19932;-70
2023/10/22 05:10:02;;;;;;;;;;;;;;;-140.72;100.00;60678.31;5070678;28;21756;-70
2023/10/22 05:12:27;;;;;;;;;;;;;;;-140.72;100.00;60692.53;5069419;28;19927;-71
2023/10/22 05:14:53;;;;;;;;;;;;;;;-140.72;100.00;60629.50;5072866;28;19920;-71
2023/10/22 05:17:18;;;;;;;;;;;;;;;-140.72;100.00;60702.72;5071775;28;19928;-71
2023/10/22 05:19:43;;;;;;;;;;;;;;;-140.72;100.00;60660.00;5070782;28;19938;-71
2023/10/22 05:22:08;;;;;;;;;;;;;;;-140.72;100.00;60688.47;5071952;28;20034;-71
2023/10/22 05:24:33;;;;;;;;;;;;;;;-140.72;100.00;60655.94;5063679;28;19978;-71
2023/10/22 05:26:59;;;;;;;;;;;;;;;-140.72;100.00;60688.47;5070263;28;19927;-71
2023/10/22 05:29:24;;;;;;;;;;;;;;;-140.72;100.00;60690.50;5063902;28;19932;-72
2023/10/22 05:31:49;;;;;;;;;;;;;;;-140.72;100.00;60714.91;5071919;28;19925;-71
2023/10/22 05:34:15;;;;;;;;;;;;;;;-140.72;100.00;60690.50;5073694;28;20323;-71
2023/10/22 05:36:40;;;;;;;;;;;;;;;-140.72;100.00;60682.38;5093783;28;19908;-71
2023/10/22 05:39:05;;;;;;;;;;;;;;;-140.72;100.00;60718.97;5069529;28;19965;-70
2023/10/22 05:41:30;;;;;;;;;;;;;;;-140.72;100.00;60723.03;5063710;28;19927;-68
2023/10/22 05:43:59;;;;;;;;;;;;;;;-140.72;100.00;60708.81;5073363;28;20305;-71
2023/10/22 05:46:25;;;;;;;;;;;;;;;-140.72;100.00;60714.91;5072716;28;19920;-70
2023/10/22 05:48:50;;;;;;;;;;;;;;;-140.72;100.00;60723.03;5070536;28;19943;-70
2023/10/22 05:51:16;;;;;;;;;;;;;;;-140.72;100.00;60735.25;5071231;28;19924;-70
2023/10/22 05:53:41;;;;;;;;;;;;;;;-140.72;100.00;60739.31;5067512;28;19920;-70
2023/10/22 05:56:06;;;;;;;;;;;;;;;-140.72;100.00;60769.81;5066911;28;19972;-72
2023/10/22 05:58:31;;;;;;;;;;;;;;;-140.72;100.00;60755.59;5065423;28;19928;-70
2023/10/22 06:00:56;;;;;;;;;;;;;;;-140.72;100.00;60763.72;5069204;28;19920;-70
2023/10/22 06:03:22;;;;;;;;;;;;;;;-140.72;100.00;60788.13;5071288;28;20293;-70
2023/10/22 06:05:47;;;;;;;;;;;;;;;-140.72;100.00;60790.16;5071415;28;19960;-70
2023/10/22 06:08:12;;;;;;;;;;;;;;;-140.72;100.00;60796.25;5069110;28;19925;-71
2023/10/22 06:10:41;;;;;;;;;;;;;;;-140.72;100.00;60782.00;5069013;28;19920;-70
2023/10/22 06:13:06;;;;;;;;;;;;;;;-140.72;100.00;60761.69;5066353;28;19925;-70
2023/10/22 06:15:31;;;;;;;;;;;;;;;-140.72;100.00;60735.25;5071257;28;19920;-69
2023/10/22 06:17:57;;;;;;;;;;;;;;;-140.72;100.00;60710.84;5068388;28;19937;-70
2023/10/22 06:20:22;;;;;;;;;;;;;;;-140.72;100.00;60710.84;5063814;28;19920;-70
2023/10/22 06:22:47;;;;;;;;;;;;;;;-140.72;100.00;60700.69;5068989;28;19982;-70
2023/10/22 06:25:13;;;;;;;;;;;;;;;-140.72;100.00;60674.25;5067458;28;19964;-73
2023/10/22 06:27:38;;;;;;;;;;;;;;;-140.72;100.00;60678.31;5069454;28;19928;-73
2023/10/22 06:30:04;;;;;;;;;;;;;;;-140.72;100.00;60621.38;5071868;28;19924;-73
2023/10/22 06:32:29;;;;;;;;;;;;;;;-140.72;100.00;60629.50;5060397;28;19959;-73
2023/10/22 06:35:23;;;;;;;;;;;;;;;-140.72;100.00;60631.53;5072547;28;19999;-75
2023/10/22 06:37:52;;;;;;;;;;;;;;;-140.72;100.00;60647.81;5073814;28;19928;-74
2023/10/22 06:40:18;;;;;;;;;;;;;;;-140.72;100.00;60639.69;5066656;28;20337;-73
2023/10/22 06:42:43;;;;;;;;;;;;;;;-140.72;100.00;60619.34;5068555;28;19921;-73
2023/10/22 06:45:09;;;;;;;;;;;;;;;-140.72;100.00;60619.34;5066904;28;19975;-73
2023/10/22 06:47:36;;;;;;;;;;;;;;;-140.72;100.00;60625.44;5068708;28;19925;-73
2023/10/22 06:50:01;;;;;;;;;;;;;;;-140.72;100.00;60601.03;5063620;28;19920;-73
2023/10/22 06:52:26;;;;;;;;;;;;;;;-140.72;100.00;60631.53;5073146;28;19920;-72
2023/10/22 06:54:53;;;;;;;;;;;;;;;-140.72;100.00;60631.53;5071026;28;19974;-74
2023/10/22 06:57:18;;;;;;;;;;;;;;;-140.72;100.00;60617.31;5080302;28;19928;-73
2023/10/22 06:59:46;;;;;;;;;;;;;;;-140.72;100.00;60592.91;5089311;28;19939;-74
2023/10/22 07:02:11;;;;;;;;;;;;;;;-140.72;100.00;60596.97;5094909;28;19921;-73
2023/10/22 07:04:37;;;;;;;;;;;;;;;-140.72;100.00;60590.88;5077997;28;19989;-73
2023/10/22 07:07:02;;;;;;;;;;;;;;;-140.72;100.00;60562.41;5074151;28;19928;-73
2023/10/22 07:09:27;;;;;;;;;;;;;;;-140.72;100.00;60570.53;5069307;28;20262;-73
2023/10/22 07:11:52;;;;;;;;;;;;;;;-140.72;100.00;60568.50;5073955;28;19921;-73
2023/10/22 07:14:18;;;;;;;;;;;;;;;-140.72;100.00;60588.84;5077045;28;20012;-73
2023/10/22 07:16:43;;;;;;;;;;;;;;;-140.72;100.00;60584.78;5074829;28;20011;-72
2023/10/22 07:19:08;;;;;;;;;;;;;;;-140.72;100.00;60572.59;5083213;28;20380;-73
2023/10/22 07:21:34;;;;;;;;;;;;;;;-140.72;100.00;60564.44;5086503;28;19922;-73
2023/10/22 07:23:59;;;;;;;;;;;;;;;-140.72;100.00;60568.50;5085638;28;19920;-72
2023/10/22 07:26:26;;;;;;;;;;;;;;;-140.72;100.00;60554.28;5076366;28;19920;-73
2023/10/22 07:28:52;;;;;;;;;;;;;;;-140.72;100.00;60556.31;5074682;28;20371;-73
2023/10/22 07:31:17;;;;;;;;;;;;;;;-140.72;100.00;60611.22;5076375;28;19931;-73
2023/10/22 07:33:42;;;;;;;;;;;;;;;-140.72;100.00;60625.44;5074106;28;19920;-72
2023/10/22 07:36:08;;;;;;;;;;;;;;;-140.72;100.00;60609.19;5062037;28;20333;-72
2023/10/22 07:38:33;;;;;;;;;;;;;;;-140.72;100.00;60611.22;5076950;28;19917;-72
2023/10/22 07:40:59;;;;;;;;;;;;;;;-140.72;100.00;60599.00;5067494;28;20034;-72
2023/10/22 07:43:25;;;;;;;;;;;;;;;-140.72;100.00;60586.81;5079036;28;19971;-73
2023/10/22 07:45:50;;;;;;;;;;;;;;;-140.72;100.00;60519.72;5077803;28;20031;-73
2023/10/22 07:48:16;;;;;;;;;;;;;;;-140.72;100.00;60540.03;5081852;28;19998;-73
2023/10/22 07:50:41;;;;;;;;;;;;;;;-140.72;100.00;60499.38;5072738;28;19920;-73
2023/10/22 07:53:06;;;;;;;;;;;;;;;-140.72;100.00;60432.28;5073090;28;20386;-73
2023/10/22 07:55:33;;;;;;;;;;;;;;;-140.72;100.00;60446.53;5066453;28;19926;-72
2023/10/22 07:57:59;;;;;;;;;;;;;;;-140.72;100.00;60359.09;5074887;28;20016;-73
2023/10/22 08:00:25;;;;;;;;;;;;;;;-140.72;100.00;60377.38;5068674;28;20011;-72
2023/10/22 08:02:50;;;;;;;;;;;;;;;-140.72;100.00;60283.88;5073270;28;19920;-72
2023/10/22 08:05:16;;;;;;;;;;;;;;;-140.72;100.00;60253.38;5075193;28;20062;-72
2023/10/22 08:07:41;;;;;;;;;;;;;;;-140.72;100.00;60210.66;5074169;28;19920;-73
2023/10/22 08:10:06;;;;;;;;;;;;;;;-140.72;100.00;60127.31;5065907;28;19921;-70
2023/10/22 08:12:31;;;;;;;;;;;;;;;-140.72;100.00;60062.25;5075435;28;20324;-70
2023/10/22 08:14:57;;;;;;;;;;;;;;;-140.72;100.00;60052.09;5080203;28;20016;-70
2023/10/22 08:17:22;;;;;;;;;;;;;;;-140.72;100.00;60021.59;5073439;28;20370;-70
2023/10/22 08:19:47;;;;;;;;;;;;;;;-140.72;100.00;59962.63;5071275;28;19920;-70
2023/10/22 08:22:12;;;;;;;;;;;;;;;-140.72;100.00;59917.91;5072841;28;20015;-70
2023/10/22 08:24:38;;;;;;;;;;;;;;;-140.72;100.00;59869.13;5075764;28;20263;-70
2023/10/22 08:27:04;;;;;;;;;;;;;;;-140.72;100.00;59887.41;5074204;28;19920;-72
2023/10/22 08:29:29;;;;;;;;;;;;;;;-140.72;100.00;59844.72;5067830;28;19920;-76
2023/10/22 08:31:54;;;;;;;;;;;;;;;-140.72;100.00;59802.03;5074990;28;19927;-72
2023/10/22 08:34:21;;;;;;;;;;;;;;;-140.72;100.00;59804.06;5068790;28;19921;-72
2023/10/22 08:36:46;;;;;;;;;;;;;;;-140.72;100.00;59846.75;5069926;28;19994;-72
2023/10/22 08:39:11;;;;;;;;;;;;;;;-140.72;100.00;59781.69;5074422;28;19920;-71
2023/10/22 08:41:55;;;;;;;;;;;;;;;-140.72;100.00;59743.06;5078490;28;19920;-71
2023/10/22 08:44:21;;;;;;;;;;;;;;;-140.72;100.00;59657.69;5069573;28;20295;-71
2023/10/22 08:46:46;;;;;;;;;;;;;;;-140.72;100.00;59592.66;5073118;28;19950;-71
2023/10/22 08:49:12;;;;;;;;;;;;;;;-140.72;100.00;59537.75;5069080;28;19921;-71
2023/10/22 08:51:38;;;;;;;;;;;;;;;-140.72;100.00;59434.09;5070624;28;19921;-71
2023/10/22 08:54:04;;;;;;;;;;;;;;;-140.72;100.00;59387.34;5070306;28;20271;-71
2023/10/22 08:56:30;;;;;;;;;;;;;;;-140.72;100.00;59291.81;5071544;28;19917;-71
2023/10/22 08:58:59;;;;;;;;;;;;;;;-140.72;100.00;59190.16;5069660;28;20339;-71
2023/10/22 09:01:25;;;;;;;;;;;;;;;-140.72;100.00;59072.28;5069750;28;20427;-71
2023/10/22 09:03:50;;;;;;;;;;;;;;;-140.72;100.00;59007.25;5070288;28;19927;-71
2023/10/22 09:06:16;;;;;;;;;;;;;;;-140.72;100.00;58897.50;5069537;28;19920;-71
2023/10/22 09:08:45;;;;;;;;;;;;;;;-140.72;100.00;58799.94;5076285;28;19978;-71
2023/10/22 09:11:16;;;;;;;;;;;;;;;-140.72;100.00;58708.47;5074653;28;19916;-73
2023/10/22 09:13:42;;;;;;;;;;;;;;;-140.72;100.00;58629.22;5069558;28;20274;-73
2023/10/22 09:16:08;;;;;;;;;;;;;;;-140.72;100.00;58592.63;5072266;28;19917;-72
2023/10/22 09:18:40;;;;;;;;;;;;;;;-140.72;100.00;58466.63;5070537;28;19935;-72
2023/10/22 09:21:06;;;;;;;;;;;;;;;-140.72;100.00;58436.16;5067573;28;20369;-73
2023/10/22 09:23:31;;;;;;;;;;;;;;;-140.72;100.00;58271.53;5071307;28;20026;-73
2023/10/22 09:25:57;;;;;;;;;;;;;;;-140.72;100.00;58131.34;5073246;28;20302;-72
2023/10/22 09:28:26;;;;;;;;;;;;;;;-140.72;100.00;58037.84;5075920;28;20371;-73
2023/10/22 09:30:59;;;;;;;;;;;;;;;-140.72;100.00;57991.13;5068503;28;19921;-73
2023/10/22 09:33:30;;;;;;;;;;;;;;;-140.72;100.00;57903.75;5063948;28;19923;-73
2023/10/22 09:35:59;;;;;;;;;;;;;;;-140.72;100.00;57814.34;5071742;28;20448;-77
2023/10/22 09:38:43;;;;;;;;;;;;;;;-140.72;100.00;57810.28;5068848;28;19925;-72
2023/10/22 09:41:12;;;;;;;;;;;;;;;-140.72;100.00;57871.22;5069349;28;19924;-72
2023/10/22 09:43:38;;;;;;;;;;;;;;;-140.72;100.00;57915.94;5070695;28;20000;-76
2023/10/22 09:46:06;;;;;;;;;;;;;;;-140.72;100.00;57877.34;5078171;28;20010;-73
2023/10/22 09:48:33;;;;;;;;;;;;;;;-140.72;100.00;57840.75;5072322;28;19966;-73
2023/10/22 09:50:59;;;;;;;;;;;;;;;-140.72;100.00;57818.41;5068369;28;19940;-72
2023/10/22 09:53:26;;;;;;;;;;;;;;;-140.72;100.00;57798.09;5067520;28;20387;-72
2023/10/22 09:55:53;;;;;;;;;;;;;;;-140.72;100.00;57749.31;5065981;28;19929;-73
2023/10/22 09:58:21;;;;;;;;;;;;;;;-140.72;100.00;57753.38;5070754;28;19920;-72
2023/10/22 10:00:46;;;;;;;;;;;;;;;-140.72;100.00;57783.88;5070310;28;19924;-72
2023/10/22 10:03:12;;;;;;;;;;;;;;;-140.72;100.00;57779.81;5069432;28;20008;-73
2023/10/22 10:05:38;;;;;;;;;;;;;;;-140.72;100.00;57824.50;5071123;28;19933;-80
2023/10/22 10:08:03;;;;;;;;;;;;;;;-140.72;100.00;57706.66;5074323;28;19928;-81
2023/10/22 10:10:29;;;;;;;;;;;;;;;-140.72;100.00;57670.06;5073762;28;19952;-82
2023/10/22 10:12:55;;;;;;;;;;;;;;;-140.72;100.00;57592.88;5073549;28;19920;-82
2023/10/22 10:15:30;;;;;;;;;;;;;;;-140.72;100.00;57631.47;5074255;28;19984;-82
2023/10/22 10:17:55;;;;;;;;;;;;;;;-140.72;100.00;57509.56;5068190;28;19964;-83
2023/10/22 10:20:24;;;;;;;;;;;;;;;-140.72;100.00;57426.28;5074315;28;19928;-83
2023/10/22 10:23:01;;;;;;;;;;;;;;;-140.72;100.00;57454.72;5093577;28;19982;-78
2023/10/22 10:25:35;;;;;;;;;;;;;;;-140.72;100.00;57450.66;5070890;28;19951;-81
2023/10/22 10:28:08;;;;;;;;;;;;;;;-140.72;100.00;57466.91;5072750;28;19927;-74
2023/10/22 10:30:34;;;;;;;;;;;;;;;-140.72;100.00;57428.31;5064794;28;20375;-74
2023/10/22 10:32:59;;;;;;;;;;;;;;;-140.72;100.00;57430.34;5066785;28;19927;-72
2023/10/22 10:35:27;;;;;;;;;;;;;;;-140.72;100.00;57363.28;5073241;28;20387;-72
2023/10/22 10:38:15;;;;;;;;;;;;;;;-140.72;100.00;57363.28;5069528;28;19979;-74
2023/10/22 10:40:44;;;;;;;;;;;;;;;-140.72;100.00;57336.88;5059712;28;19932;-72
2023/10/22 10:43:10;;;;;;;;;;;;;;;-140.72;100.00;57198.72;5067145;28;20320;-71
2023/10/22 10:45:40;;;;;;;;;;;;;;;-140.72;100.00;57056.50;5069813;28;19924;-72
2023/10/22 10:48:05;;;;;;;;;;;;;;;-140.72;100.00;57007.75;5066152;28;19920;-74
2023/10/22 10:50:31;;;;;;;;;;;;;;;-140.72;100.00;56770.09;5068805;28;19928;-73
2023/10/22 10:52:57;;;;;;;;;;;;;;;-140.72;100.00;56650.22;5069186;28;19977;-72
2023/10/22 10:55:22;;;;;;;;;;;;;;;-140.72;100.00;56369.94;5081276;28;19931;-75
2023/10/22 10:57:49;;;;;;;;;;;;;;;-140.72;100.00;56105.88;5073049;28;19967;-74
2023/10/22 11:00:20;;;;;;;;;;;;;;;-140.72;100.00;55854.03;5068272;28;20379;-73
2023/10/22 11:02:46;;;;;;;;;;;;;;;-140.72;100.00;55502.72;5070316;28;19929;-73
2023/10/22 11:05:12;;;;;;;;;;;;;;;-140.72;100.00;55437.75;5068648;28;20019;-74
2023/10/22 11:07:38;;;;;;;;;;;;;;;-140.72;100.00;55358.53;5064848;28;20377;-77
2023/10/22 11:10:21;;;;;;;;;;;;;;;-140.72;100.00;55192.03;5064724;28;20057;-76
2023/10/22 11:12:46;;;;;;;;;;;;;;;-140.72;100.00;54757.50;5062587;28;19963;-73
2023/10/22 11:15:12;;;;;;;;;;;;;;;-140.72;100.00;54085.53;5070275;28;19920;-72
2023/10/22 11:17:38;;;;;;;;;;;;;;;-140.72;100.00;53645.06;5067776;28;19920;-72
2023/10/22 11:20:04;;;;;;;;;;;;;;;-140.72;100.00;52745.97;5064413;28;19975;-72
2023/10/22 11:22:30;;;;;;;;;;;;;;;-140.72;100.00;52707.41;5065672;28;19974;-74
2023/10/22 11:24:56;;;;;;;;;;;;;;;-140.72;100.00;52691.19;5063378;28;20353;-75
2023/10/22 11:27:22;;;;;;;;;;;;;;;-140.72;31.22;52739.88;5068884;28;19966;-73
2023/10/22 11:29:47;;;;;;;;;;;;;;;-140.72;0.00;52760.19;5065039;28;20007;-73
2023/10/22 11:32:16;;;;;;;;;;;;;;;-140.72;0.00;52810.91;5069409;28;19935;-73
2023/10/22 11:35:00;;;;;;;;;;;;;;;-140.72;36.83;52890.06;5066635;28;19970;-74
2023/10/22 11:37:36;;;;;;;;;;;;;;;-140.72;100.00;52892.09;5064027;28;20038;-73
2023/10/22 11:40:21;;;;;;;;;;;;;;;-140.72;100.00;52918.47;5069940;28;20262;-73
2023/10/22 11:42:46;;;;;;;;;;;;;;;-140.72;100.00;52957.03;5071241;28;19920;-71
2023/10/22 11:45:12;;;;;;;;;;;;;;;-140.72;100.00;52817.00;5062701;28;19921;-70
2023/10/22 11:47:37;;;;;;;;;;;;;;;-140.72;100.00;52762.22;5063091;28;19998;-73
2023/10/22 11:50:03;;;;;;;;;;;;;;;-140.72;58.74;52739.88;5065152;28;19925;-74
2023/10/22 11:52:34;;;;;;;;;;;;;;;-140.72;0.00;52681.03;5067766;28;19924;-75
2023/10/22 11:54:59;;;;;;;;;;;;;;;-140.72;0.00;52693.22;5064952;28;19921;-74
2023/10/22 11:57:24;;;;;;;;;;;;;;;-140.72;0.00;52711.47;5081750;28;20024;-72
2023/10/22 11:59:50;;;;;;;;;;;;;;;-140.72;0.00;52646.53;5080469;28;19916;-72
2023/10/22 12:02:15;;;;;;;;;;;;;;;-140.72;0.00;52654.66;5069191;28;19932;-72
2023/10/22 12:04:40;;;;;;;;;;;;;;;-140.72;0.00;52695.25;5071393;28;19920;-82
2023/10/22 12:07:05;;;;;;;;;;;;;;;-140.72;0.00;52668.84;5063459;28;20322;-74
2023/10/22 12:09:31;;;;;;;;;;;;;;;-140.72;0.00;52666.84;5072583;28;20313;-75
2023/10/22 12:11:56;;;;;;;;;;;;;;;-140.72;0.00;52721.63;5070991;28;20390;-72
2023/10/22 12:14:22;;;;;;;;;;;;;;;-140.72;0.00;52752.06;5072609;28;19977;-75